Time;durP1;ratioP1;P1;durP2;ratioP2;P2;SDS_P1;SDS_P2;PMS_P1;PMS_P2;Temp;Humidity;BMP_temperature;BMP_pressure;BME280_temperature;BME280_humidity;BME280_pressure;Samples;Min_cycle;Max_cycle;Signal;HPM_P1;HPM_P2
2022/01/04 05:00:59;;;;;;;0.90;0.60;;;5.90;96.30;;;;;;5666902;23;20544;-78
2022/01/04 05:03:24;;;;;;;1.33;0.80;;;5.90;96.30;;;;;;4944289;29;20462;-77
2022/01/04 05:05:50;;;;;;;0.90;0.70;;;5.80;96.30;;;;;;4936511;29;20222;-79
2022/01/04 05:08:15;;;;;;;3.63;0.60;;;5.90;96.30;;;;;;4954132;28;20653;-78
2022/01/04 05:10:42;;;;;;;3.17;0.80;;;5.90;96.30;;;;;;4950297;29;20195;-77
2022/01/04 05:13:08;;;;;;;0.90;0.67;;;5.80;96.30;;;;;;4956873;29;20171;-78
2022/01/04 05:15:33;;;;;;;1.50;0.80;;;5.80;96.30;;;;;;4941370;29;20410;-76
2022/01/04 05:17:59;;;;;;;1.03;0.93;;;5.80;96.30;;;;;;4960223;29;20642;-76
2022/01/04 05:22:59;;;;;;;2.40;0.90;;;5.70;96.30;;;;;;5512846;23;20229;-77
2022/01/04 05:25:25;;;;;;;12.10;1.37;;;5.70;96.30;;;;;;4957757;28;20440;-78
2022/01/04 05:27:51;;;;;;;1.00;0.87;;;5.60;96.30;;;;;;4958510;28;20612;-77
2022/01/04 05:30:16;;;;;;;1.40;1.03;;;5.60;96.30;;;;;;4975602;28;20179;-77
2022/01/04 05:32:42;;;;;;;3.50;1.27;;;5.60;96.30;;;;;;4975771;28;20170;-76
2022/01/04 05:35:08;;;;;;;2.00;1.10;;;5.60;96.30;;;;;;4967872;28;20206;-75
2022/01/04 05:37:33;;;;;;;1.10;0.70;;;5.60;96.30;;;;;;4956297;29;20179;-75
2022/01/04 05:39:59;;;;;;;1.50;0.80;;;5.60;96.30;;;;;;4939031;29;20787;-74
2022/01/04 05:42:24;;;;;;;1.43;0.97;;;5.60;96.30;;;;;;4956244;29;20218;-76
2022/01/04 05:44:50;;;;;;;7.13;4.73;;;5.60;96.30;;;;;;4955981;29;20555;-78
2022/01/04 05:47:15;;;;;;;33.93;23.20;;;5.60;96.30;;;;;;4938984;29;20179;-74
2022/01/04 05:49:41;;;;;;;17.67;12.00;;;5.60;96.30;;;;;;4938839;29;20257;-75
2022/01/04 05:52:06;;;;;;;13.83;9.03;;;5.60;96.30;;;;;;4938809;29;20202;-75
2022/01/04 05:54:33;;;;;;;3.03;1.93;;;5.60;96.30;;;;;;4956355;28;20232;-75
2022/01/04 05:56:58;;;;;;;6.50;3.83;;;5.60;96.30;;;;;;4975334;28;20181;-75
2022/01/04 05:59:24;;;;;;;1.57;1.10;;;5.50;96.30;;;;;;4975242;28;20776;-75
2022/01/04 06:01:49;;;;;;;2.67;1.40;;;5.60;96.30;;;;;;4975099;28;20269;-75
2022/01/04 06:04:15;;;;;;;1.27;0.90;;;5.60;96.30;;;;;;4957019;28;20666;-73
2022/01/04 06:06:41;;;;;;;2.10;1.50;;;5.60;96.30;;;;;;4975024;28;20181;-74
2022/01/04 06:09:09;;;;;;;1.40;1.20;;;5.50;96.30;;;;;;4970291;28;20199;-74
2022/01/04 06:16:50;;;;;;;1.67;1.27;;;5.50;96.30;;;;;;4955661;29;20414;-75
2022/01/04 06:19:16;;;;;;;2.03;1.60;;;5.40;96.30;;;;;;4955500;29;20407;-76
2022/01/04 06:21:41;;;;;;;1.60;1.50;;;5.40;96.30;;;;;;4961717;28;20204;-76
2022/01/04 06:24:07;;;;;;;1.40;1.30;;;5.40;96.30;;;;;;4965423;28;20272;-75
2022/01/04 06:26:33;;;;;;;2.63;1.40;;;5.40;96.30;;;;;;4950546;29;20206;-75
2022/01/04 06:28:59;;;;;;;3.20;1.67;;;5.40;96.30;;;;;;4955638;29;20698;-74
2022/01/04 06:31:28;;;;;;;1.83;1.40;;;5.40;96.30;;;;;;4956186;29;20430;-73
2022/01/04 06:33:54;;;;;;;1.60;1.40;;;5.40;96.30;;;;;;4955250;29;20561;-77
2022/01/04 06:36:20;;;;;;;2.47;1.53;;;5.40;96.30;;;;;;4955478;29;20465;-76
2022/01/04 06:38:46;;;;;;;2.40;1.60;;;5.40;96.30;;;;;;4938176;29;20419;-78
2022/01/04 06:41:11;;;;;;;2.13;1.97;;;5.40;96.30;;;;;;4937578;29;20207;-78
2022/01/04 06:43:37;;;;;;;2.13;1.57;;;5.40;96.30;;;;;;4954452;29;20290;-77
2022/01/04 06:46:02;;;;;;;1.70;1.30;;;5.40;96.30;;;;;;4954925;29;20296;-77
2022/01/04 06:48:28;;;;;;;2.40;1.50;;;5.40;96.30;;;;;;4954946;29;20179;-77
2022/01/04 06:50:53;;;;;;;2.80;1.53;;;5.40;96.30;;;;;;4953994;28;20726;-78
2022/01/04 06:53:19;;;;;;;3.27;1.60;;;5.40;96.30;;;;;;4956467;28;20265;-78
2022/01/04 06:55:50;;;;;;;4.50;1.47;;;5.40;96.30;;;;;;4974031;28;20174;-79
2022/01/04 06:58:16;;;;;;;2.17;1.53;;;5.40;96.30;;;;;;4956835;28;20474;-79
2022/01/04 07:00:41;;;;;;;3.33;1.77;;;5.40;96.30;;;;;;4956779;28;20437;-76
2022/01/04 07:03:07;;;;;;;4.40;2.37;;;5.40;96.30;;;;;;4962181;28;20782;-78
2022/01/04 07:05:35;;;;;;;2.10;1.60;;;5.40;96.30;;;;;;4954555;29;20193;-77
2022/01/04 07:08:03;;;;;;;2.50;1.70;;;5.40;96.30;;;;;;4937443;29;20183;-76
2022/01/04 07:10:29;;;;;;;5.30;1.50;;;5.40;96.30;;;;;;4954147;29;20437;-80
2022/01/04 07:12:55;;;;;;;4.03;1.67;;;5.40;96.30;;;;;;4937318;29;20422;-78
2022/01/04 07:15:20;;;;;;;5.30;1.57;;;5.50;96.30;;;;;;4936968;29;20187;-77
2022/01/04 07:17:46;;;;;;;2.83;2.63;;;5.40;96.30;;;;;;4954705;29;20191;-79
2022/01/04 07:20:11;;;;;;;3.70;2.60;;;5.40;96.30;;;;;;4954637;29;20210;-79
2022/01/04 07:22:37;;;;;;;3.90;2.87;;;5.40;96.30;;;;;;4954162;29;20337;-79
2022/01/04 07:25:04;;;;;;;3.57;2.60;;;5.50;96.30;;;;;;4936468;29;20209;-79
2022/01/04 07:27:30;;;;;;;3.40;2.80;;;5.50;96.30;;;;;;4956867;28;20182;-80
2022/01/04 07:29:55;;;;;;;5.33;3.50;;;5.50;96.30;;;;;;4950692;28;20425;-81
2022/01/04 07:32:21;;;;;;;3.87;1.90;;;5.40;96.30;;;;;;4944159;28;20227;-78
2022/01/04 07:34:46;;;;;;;4.73;2.80;;;5.50;96.30;;;;;;4953421;29;20265;-78
2022/01/04 07:37:13;;;;;;;12.53;7.07;;;5.40;96.30;;;;;;4934197;29;20187;-80
2022/01/04 07:39:39;;;;;;;8.40;5.80;;;5.50;96.30;;;;;;4935392;29;20213;-78
2022/01/04 07:42:05;;;;;;;3.83;2.90;;;5.50;96.30;;;;;;4936761;29;20471;-78
2022/01/04 07:44:30;;;;;;;2.87;2.57;;;5.50;96.30;;;;;;4948579;29;20203;-78
2022/01/04 07:46:57;;;;;;;2.17;1.90;;;5.50;96.30;;;;;;4934856;29;20474;-74
2022/01/04 07:49:23;;;;;;;3.40;2.53;;;5.50;96.30;;;;;;4951134;29;20183;-74
2022/01/04 07:51:48;;;;;;;5.63;3.10;;;5.50;96.30;;;;;;4952017;29;20434;-73
2022/01/04 07:54:14;;;;;;;1.93;1.60;;;5.50;96.30;;;;;;4951747;29;20187;-75
2022/01/04 07:56:39;;;;;;;2.27;2.07;;;5.50;96.30;;;;;;4951616;29;20182;-78
2022/01/04 07:59:05;;;;;;;2.20;2.00;;;5.50;96.30;;;;;;4953478;29;20187;-73
2022/01/04 08:01:31;;;;;;;5.33;3.43;;;5.50;96.30;;;;;;4949845;29;20617;-76
2022/01/04 08:03:57;;;;;;;6.37;4.57;;;5.50;96.30;;;;;;4931716;29;20253;-76
2022/01/04 08:06:23;;;;;;;10.20;6.47;;;5.50;96.30;;;;;;4952645;28;20939;-76
2022/01/04 08:08:49;;;;;;;13.50;7.73;;;5.50;96.30;;;;;;4952053;29;20411;-74
2022/01/04 08:11:15;;;;;;;9.80;6.10;;;5.50;96.30;;;;;;4953078;28;20576;-74
2022/01/04 08:13:40;;;;;;;12.00;5.00;;;5.60;96.30;;;;;;4950356;29;20430;-74
2022/01/04 08:16:05;;;;;;;3.17;1.70;;;5.60;96.30;;;;;;4953210;29;20201;-75
2022/01/04 08:18:31;;;;;;;3.57;2.23;;;5.60;96.30;;;;;;4932961;29;20563;-76
2022/01/04 08:20:57;;;;;;;2.40;1.93;;;5.70;96.30;;;;;;4953729;29;20250;-78
2022/01/04 08:23:24;;;;;;;2.50;2.03;;;5.60;96.30;;;;;;4966339;28;20205;-77
2022/01/04 08:25:50;;;;;;;3.43;2.03;;;5.70;96.30;;;;;;4934802;29;20433;-78
2022/01/04 08:28:15;;;;;;;4.13;1.87;;;5.70;96.30;;;;;;4953594;29;20418;-78
2022/01/04 08:30:42;;;;;;;2.03;1.83;;;5.70;96.30;;;;;;4932818;28;20246;-75
2022/01/04 08:33:11;;;;;;;4.17;1.70;;;5.80;96.30;;;;;;4935166;29;20605;-76
2022/01/04 08:35:38;;;;;;;2.70;1.80;;;5.80;96.30;;;;;;4940309;29;20852;-75
2022/01/04 08:38:05;;;;;;;1.70;1.37;;;5.80;96.30;;;;;;4953363;29;20935;-76
2022/01/04 08:40:31;;;;;;;2.33;1.90;;;5.90;96.30;;;;;;4936046;29;20525;-76
2022/01/04 08:42:56;;;;;;;2.27;2.07;;;5.90;96.30;;;;;;4953942;28;20954;-76
2022/01/04 08:45:23;;;;;;;2.37;1.80;;;5.90;96.30;;;;;;4956866;29;20213;-76
2022/01/04 08:47:49;;;;;;;2.07;1.87;;;6.00;96.30;;;;;;4956950;29;20258;-76
2022/01/04 08:50:15;;;;;;;2.10;1.90;;;6.00;96.30;;;;;;4956860;29;20415;-76
2022/01/04 08:52:41;;;;;;;3.90;1.90;;;6.10;96.30;;;;;;4975541;28;20459;-77
2022/01/04 08:55:08;;;;;;;11.50;6.37;;;6.10;96.30;;;;;;4973087;28;20202;-76
2022/01/04 08:57:33;;;;;;;10.80;7.50;;;6.20;96.30;;;;;;4960172;28;20211;-76
2022/01/04 08:59:59;;;;;;;1.97;1.77;;;6.20;96.30;;;;;;4957004;29;20457;-76
2022/01/04 09:02:25;;;;;;;1.27;1.00;;;6.30;96.30;;;;;;4956752;29;20198;-76
2022/01/04 09:04:51;;;;;;;1.60;1.00;;;6.60;96.30;;;;;;4956414;29;20827;-76
2022/01/04 09:07:17;;;;;;;2.37;1.60;;;6.70;96.30;;;;;;4938729;29;20179;-76
2022/01/04 09:09:43;;;;;;;1.30;1.00;;;6.80;96.30;;;;;;4940624;29;20186;-76
2022/01/04 09:12:08;;;;;;;5.10;3.23;;;6.90;96.30;;;;;;4947032;28;20434;-76
2022/01/04 09:14:44;;;;;;;1.63;1.47;;;6.90;96.30;;;;;;4949662;28;20190;-76
2022/01/04 09:19:55;;;;;;;1.83;1.47;;;7.10;96.30;;;;;;4937361;29;20439;-76
2022/01/04 09:22:20;;;;;;;1.30;1.00;;;7.20;96.30;;;;;;4937130;29;20443;-76
2022/01/04 09:24:46;;;;;;;2.30;2.10;;;7.30;96.30;;;;;;4936620;29;20876;-76
2022/01/04 09:27:12;;;;;;;1.20;0.90;;;7.30;96.30;;;;;;4937253;29;20624;-77
2022/01/04 09:29:37;;;;;;;1.20;1.00;;;7.30;96.30;;;;;;4937129;29;20574;-77
2022/01/04 09:32:05;;;;;;;0.90;0.70;;;7.30;96.30;;;;;;4951891;28;20743;-77
2022/01/04 09:34:31;;;;;;;2.37;2.17;;;7.50;96.30;;;;;;4973098;28;20178;-73
2022/01/04 09:36:56;;;;;;;1.30;0.90;;;7.60;96.30;;;;;;4956062;29;20446;-76
2022/01/04 09:39:23;;;;;;;1.40;0.77;;;7.60;96.30;;;;;;4939014;29;20182;-76
2022/01/04 09:41:50;;;;;;;1.40;1.30;;;7.50;96.30;;;;;;4938859;29;20203;-74
2022/01/04 09:44:16;;;;;;;0.90;0.70;;;7.50;96.30;;;;;;4956125;29;20573;-73
2022/01/04 09:46:42;;;;;;;1.10;1.00;;;7.50;96.30;;;;;;4956557;29;20930;-73
2022/01/04 09:49:10;;;;;;;1.30;0.70;;;7.50;96.30;;;;;;4939125;29;20415;-74
2022/01/04 09:51:37;;;;;;;1.20;0.90;;;7.50;96.30;;;;;;4939199;29;20434;-74
2022/01/04 09:54:03;;;;;;;1.40;0.93;;;7.50;96.30;;;;;;4956082;28;20973;-74
2022/01/04 09:56:29;;;;;;;1.30;0.90;;;7.50;96.30;;;;;;4963772;28;20425;-76
2022/01/04 09:58:54;;;;;;;1.10;0.80;;;7.50;96.30;;;;;;4975151;28;20662;-74
2022/01/04 10:01:25;;;;;;;0.80;0.60;;;7.50;96.30;;;;;;4975056;28;20197;-75
2022/01/04 10:03:51;;;;;;;0.80;0.50;;;7.50;96.30;;;;;;4957461;28;20292;-74
2022/01/04 10:06:18;;;;;;;1.63;0.70;;;7.50;96.30;;;;;;4957754;28;20418;-78
2022/01/04 10:08:59;;;;;;;1.00;0.70;;;7.50;96.30;;;;;;4975096;28;20401;-77
2022/01/04 10:11:47;;;;;;;1.00;0.50;;;7.50;96.30;;;;;;4974942;28;20433;-79
2022/01/04 10:14:27;;;;;;;0.80;0.50;;;7.50;96.30;;;;;;4971609;28;20429;-77
2022/01/04 10:16:54;;;;;;;0.90;0.57;;;7.60;96.30;;;;;;4932761;29;20438;-78
2022/01/04 10:19:38;;;;;;;2.33;1.10;;;7.60;96.30;;;;;;4949551;29;20431;-78
2022/01/04 10:22:12;;;;;;;0.80;0.60;;;7.70;96.30;;;;;;4938025;29;20453;-79
2022/01/04 10:24:38;;;;;;;1.33;0.63;;;7.70;96.30;;;;;;4955248;29;20796;-80
2022/01/04 10:27:22;;;;;;;0.93;0.57;;;7.70;96.30;;;;;;4955561;29;20497;-78
2022/01/04 10:29:48;;;;;;;0.80;0.50;;;7.70;96.30;;;;;;4938140;29;20551;-80
2022/01/04 10:32:14;;;;;;;1.00;0.70;;;7.70;96.30;;;;;;4955297;29;20448;-78
2022/01/04 10:34:49;;;;;;;2.87;2.30;;;7.70;96.30;;;;;;4937964;29;20175;-80
2022/01/04 10:37:36;;;;;;;1.27;0.80;;;7.80;96.30;;;;;;4955290;29;20418;-80
2022/01/04 10:40:11;;;;;;;1.00;0.70;;;7.80;96.30;;;;;;4936409;29;20891;-81
2022/01/04 10:42:36;;;;;;;2.27;1.80;;;7.80;96.30;;;;;;4936050;29;20410;-80
2022/01/04 10:45:32;;;;;;;1.90;0.90;;;7.90;96.30;;;;;;4937106;29;20470;-80
2022/01/04 10:48:13;;;;;;;4.87;1.70;;;7.90;96.30;;;;;;4940755;29;20218;-80
2022/01/04 10:50:39;;;;;;;1.03;0.70;;;7.90;96.30;;;;;;4953485;29;20438;-81
2022/01/04 10:53:12;;;;;;;1.30;0.90;;;7.90;96.30;;;;;;4949364;29;20431;-81
2022/01/04 10:55:38;;;;;;;2.60;2.07;;;7.90;96.30;;;;;;4942728;28;20476;-80
2022/01/04 10:58:04;;;;;;;2.40;1.63;;;7.90;96.30;;;;;;4957176;28;20414;-81
2022/01/04 11:00:31;;;;;;;1.17;0.80;;;7.90;96.30;;;;;;4957214;28;20261;-81
2022/01/04 11:03:00;;;;;;;0.90;0.60;;;8.00;96.30;;;;;;4974379;28;20171;-81
2022/01/04 11:05:26;;;;;;;1.20;0.80;;;8.00;96.30;;;;;;4939881;29;20458;-81
2022/01/04 11:08:00;;;;;;;0.93;0.63;;;8.00;96.30;;;;;;4931468;28;20426;-81
2022/01/04 11:10:30;;;;;;;3.00;0.60;;;8.10;96.30;;;;;;4954579;29;20233;-80
2022/01/04 11:12:58;;;;;;;0.83;0.57;;;8.10;96.30;;;;;;4937762;29;20424;-81
2022/01/04 11:15:24;;;;;;;1.00;0.70;;;8.10;96.30;;;;;;4937308;29;20453;-80
2022/01/04 11:17:50;;;;;;;0.90;0.50;;;8.10;96.30;;;;;;4937345;29;20470;-80
2022/01/04 11:20:15;;;;;;;3.40;2.50;;;8.10;96.30;;;;;;4937198;29;20867;-79
2022/01/04 11:22:45;;;;;;;2.50;1.13;;;8.10;96.30;;;;;;4954388;29;20191;-78
2022/01/04 11:25:13;;;;;;;4.67;4.20;;;8.10;96.30;;;;;;4954339;29;20195;-76
2022/01/04 11:27:40;;;;;;;1.00;0.60;;;8.20;96.30;;;;;;4954543;29;20415;-78
2022/01/04 11:30:59;;;;;;;0.90;0.60;;;8.10;96.30;;;;;;4954570;29;20774;-80
2022/01/04 11:33:43;;;;;;;1.30;0.57;;;8.10;96.30;;;;;;4862808;29;20431;-77
2022/01/04 11:36:12;;;;;;;1.90;0.70;;;8.10;96.30;;;;;;4915074;29;20426;-77
2022/01/04 11:38:38;;;;;;;1.07;0.67;;;8.10;96.30;;;;;;4937051;29;20422;-78
2022/01/04 11:41:04;;;;;;;0.80;0.50;;;8.10;96.30;;;;;;4953318;29;20978;-77
2022/01/04 11:43:35;;;;;;;3.13;0.80;;;8.10;96.30;;;;;;4936440;29;20489;-75
2022/01/04 11:46:02;;;;;;;2.60;0.60;;;8.10;96.30;;;;;;4954127;29;20414;-75
2022/01/04 11:48:42;;;;;;;1.20;0.60;;;8.00;96.30;;;;;;4953987;29;20414;-74
2022/01/04 11:51:28;;;;;;;1.10;0.60;;;7.90;96.30;;;;;;4954063;29;20462;-74
2022/01/04 11:54:17;;;;;;;1.00;0.60;;;7.80;96.30;;;;;;4959471;28;20508;-74
2022/01/04 11:57:16;;;;;;;1.10;0.60;;;7.70;96.30;;;;;;4972644;28;20516;-77
2022/01/04 11:59:45;;;;;;;0.87;0.60;;;7.60;96.30;;;;;;4955160;28;20421;-74
2022/01/04 12:02:32;;;;;;;0.83;0.50;;;7.50;96.30;;;;;;4973160;28;20937;-75
2022/01/04 12:05:10;;;;;;;0.83;0.50;;;7.50;96.30;;;;;;4963293;28;20453;-76
2022/01/04 12:07:41;;;;;;;0.90;0.60;;;7.50;96.30;;;;;;4929870;29;20427;-77
2022/01/04 12:10:22;;;;;;;0.90;0.70;;;7.40;96.30;;;;;;4946325;29;20481;-73
2022/01/04 12:12:59;;;;;;;0.80;0.60;;;7.30;96.30;;;;;;4936571;29;20421;-77
2022/01/04 12:15:34;;;;;;;0.90;0.60;;;7.20;96.30;;;;;;4953121;29;20525;-73
2022/01/04 12:18:29;;;;;;;0.80;0.60;;;7.20;96.30;;;;;;4954544;28;21154;-72
2022/01/04 12:20:59;;;;;;;0.83;0.70;;;7.00;96.30;;;;;;4957480;29;21006;-74
2022/01/04 12:23:31;;;;;;;1.00;0.80;;;6.60;96.30;;;;;;4957229;29;20457;-73
2022/01/04 12:26:05;;;;;;;0.90;0.73;;;6.40;96.30;;;;;;4957713;29;20418;-73
2022/01/04 12:28:37;;;;;;;1.33;1.00;;;6.20;96.30;;;;;;4957673;29;20417;-75
2022/01/04 12:31:18;;;;;;;0.90;0.80;;;6.10;96.30;;;;;;4957588;29;20823;-76
2022/01/04 12:33:54;;;;;;;1.10;0.90;;;6.00;96.30;;;;;;4975149;28;20426;-78
2022/01/04 12:36:33;;;;;;;0.90;0.60;;;5.90;96.30;;;;;;4959884;28;20450;-76
2022/01/04 12:39:00;;;;;;;1.77;0.70;;;5.90;96.30;;;;;;4941350;29;20461;-76
2022/01/04 12:41:27;;;;;;;0.80;0.50;;;5.90;96.30;;;;;;4957141;29;20478;-76
2022/01/04 12:43:53;;;;;;;0.80;0.60;;;5.80;96.30;;;;;;4939567;29;20450;-77
2022/01/04 12:46:27;;;;;;;1.10;0.50;;;5.70;96.30;;;;;;4957321;29;20410;-78
2022/01/04 12:48:56;;;;;;;1.00;0.60;;;5.70;96.30;;;;;;4957103;29;20415;-78
2022/01/04 12:51:29;;;;;;;1.13;0.60;;;5.60;96.30;;;;;;4957434;29;20434;-79
2022/01/04 12:54:09;;;;;;;4.13;1.87;;;5.60;96.30;;;;;;4940327;29;20973;-79
2022/01/04 12:56:48;;;;;;;0.80;0.50;;;5.60;96.30;;;;;;4956892;29;20409;-77
2022/01/04 12:59:22;;;;;;;0.90;0.60;;;5.60;96.30;;;;;;4960798;28;20461;-79
2022/01/04 13:01:50;;;;;;;0.90;0.60;;;5.60;96.30;;;;;;4964816;28;20445;-79
2022/01/04 13:04:20;;;;;;;1.63;0.60;;;5.60;96.30;;;;;;4956505;29;20449;-75
2022/01/04 13:06:46;;;;;;;1.07;0.60;;;5.60;96.30;;;;;;4949110;28;20896;-78
2022/01/04 13:09:16;;;;;;;0.90;0.60;;;5.60;96.30;;;;;;4953081;29;20427;-77
2022/01/04 13:11:52;;;;;;;0.90;0.50;;;5.60;96.30;;;;;;4945943;29;20478;-74
2022/01/04 13:14:22;;;;;;;0.87;0.60;;;5.50;96.30;;;;;;4928662;29;20426;-75
2022/01/04 13:16:49;;;;;;;0.93;0.70;;;5.60;96.30;;;;;;4956298;29;20418;-77
2022/01/04 13:19:20;;;;;;;1.00;0.70;;;5.60;96.30;;;;;;4956306;29;20555;-77
2022/01/04 13:22:19;;;;;;;0.87;0.70;;;5.60;96.30;;;;;;4956205;29;20454;-75
2022/01/04 13:24:48;;;;;;;0.90;0.70;;;5.60;96.30;;;;;;4924941;29;20468;-78
2022/01/04 13:27:29;;;;;;;1.10;0.80;;;5.60;96.30;;;;;;4956138;29;20479;-78
2022/01/04 13:29:57;;;;;;;0.90;0.67;;;5.60;96.30;;;;;;4938079;28;20438;-78
2022/01/04 13:32:31;;;;;;;1.33;0.70;;;5.60;96.30;;;;;;4939014;29;20478;-78
2022/01/04 13:35:18;;;;;;;0.90;0.60;;;5.60;96.30;;;;;;4940286;28;20481;-78
2022/01/04 13:37:53;;;;;;;1.17;0.87;;;5.50;96.30;;;;;;4954098;29;20793;-77
2022/01/04 13:40:20;;;;;;;0.97;0.70;;;5.40;96.30;;;;;;4932380;29;20469;-78
2022/01/04 13:42:48;;;;;;;0.80;0.50;;;5.20;96.30;;;;;;4947981;28;20932;-79
2022/01/04 13:45:15;;;;;;;1.33;0.60;;;5.20;96.30;;;;;;4954860;29;20462;-78
2022/01/04 13:47:45;;;;;;;1.80;0.60;;;5.20;96.30;;;;;;4956032;29;20752;-75
2022/01/04 13:50:21;;;;;;;1.00;0.60;;;5.20;96.30;;;;;;4954777;29;20419;-76
2022/01/04 13:53:18;;;;;;;0.80;0.50;;;5.10;96.30;;;;;;4955952;29;20429;-78
2022/01/04 13:56:13;;;;;;;1.10;0.70;;;5.10;96.30;;;;;;4944742;29;20422;-78
2022/01/04 13:58:47;;;;;;;0.93;0.70;;;5.00;96.30;;;;;;4959940;28;20425;-78
2022/01/04 14:01:15;;;;;;;1.40;0.80;;;5.10;96.30;;;;;;4949195;29;20454;-78
2022/01/04 14:03:42;;;;;;;1.83;0.60;;;5.00;96.30;;;;;;4955107;28;20459;-78
2022/01/04 14:06:37;;;;;;;1.50;0.70;;;5.00;96.30;;;;;;4940642;28;20521;-78
2022/01/04 14:09:09;;;;;;;0.90;0.63;;;4.90;96.30;;;;;;4943389;28;21613;-78
2022/01/04 14:11:40;;;;;;;1.00;0.80;;;5.00;96.30;;;;;;4937921;29;20443;-78
2022/01/04 14:14:09;;;;;;;1.10;0.70;;;5.00;96.30;;;;;;4962992;28;20421;-77
2022/01/04 14:16:46;;;;;;;0.90;0.63;;;5.00;96.30;;;;;;4964494;28;20513;-79
2022/01/04 14:19:19;;;;;;;0.90;0.60;;;5.00;96.30;;;;;;4956858;28;20429;-79
2022/01/04 14:21:57;;;;;;;4.23;0.73;;;5.00;96.30;;;;;;4961883;28;20450;-77
2022/01/04 14:24:33;;;;;;;0.90;0.67;;;5.00;96.30;;;;;;4955406;28;20942;-78
2022/01/04 14:27:00;;;;;;;1.10;0.70;;;5.00;96.30;;;;;;4942956;28;20512;-77
2022/01/04 14:29:28;;;;;;;1.00;0.70;;;4.90;96.30;;;;;;4953238;28;20431;-78
2022/01/04 14:32:01;;;;;;;1.20;0.80;;;4.90;96.30;;;;;;4962124;28;20512;-77
2022/01/04 14:34:27;;;;;;;0.80;0.50;;;4.90;96.30;;;;;;4954029;28;20929;-76
2022/01/04 14:36:52;;;;;;;0.90;0.70;;;4.80;96.30;;;;;;4968898;28;20540;-76
2022/01/04 14:39:18;;;;;;;1.10;0.60;;;4.70;96.30;;;;;;4954596;28;20189;-76
2022/01/04 14:41:43;;;;;;;0.90;0.70;;;4.80;96.30;;;;;;4937453;29;20285;-78
2022/01/04 14:44:10;;;;;;;0.80;0.60;;;4.80;96.30;;;;;;4947457;28;20224;-77
2022/01/04 14:46:36;;;;;;;4.93;0.60;;;4.70;96.30;;;;;;4928530;29;20199;-76
2022/01/04 14:49:02;;;;;;;0.90;0.60;;;4.70;96.30;;;;;;4950720;29;20490;-78
2022/01/04 14:51:28;;;;;;;1.13;0.60;;;4.50;96.30;;;;;;4931440;29;20798;-78
2022/01/04 14:53:54;;;;;;;0.83;0.60;;;4.40;96.30;;;;;;4938151;29;20191;-75
2022/01/04 14:56:19;;;;;;;1.87;0.50;;;4.20;96.30;;;;;;4954716;29;20171;-77
2022/01/04 14:58:45;;;;;;;0.80;0.50;;;4.10;96.30;;;;;;4954392;29;20414;-77
2022/01/04 15:01:11;;;;;;;1.10;0.60;;;4.10;96.30;;;;;;4954483;29;20223;-76
2022/01/04 15:03:36;;;;;;;0.90;0.50;;;4.00;96.30;;;;;;4953964;29;20683;-76
2022/01/04 15:06:04;;;;;;;1.73;0.63;;;3.90;96.30;;;;;;4936920;29;20179;-76
2022/01/04 15:08:30;;;;;;;0.80;0.50;;;3.80;96.30;;;;;;4960939;28;20173;-75
2022/01/04 15:10:56;;;;;;;1.00;0.50;;;3.80;96.30;;;;;;4965906;28;20439;-78
2022/01/04 15:13:21;;;;;;;0.80;0.50;;;3.80;96.30;;;;;;4953769;29;20523;-74
2022/01/04 15:15:46;;;;;;;1.20;0.60;;;3.70;96.30;;;;;;4960411;28;20257;-74
2022/01/04 15:18:12;;;;;;;0.90;0.50;;;3.70;96.30;;;;;;4946352;29;20549;-80
2022/01/04 15:20:38;;;;;;;0.80;0.40;;;3.70;96.30;;;;;;4952897;29;20231;-74
2022/01/04 15:23:04;;;;;;;0.80;0.40;;;3.70;96.30;;;;;;4953812;29;20190;-77
2022/01/04 15:25:29;;;;;;;1.73;0.60;;;3.70;96.30;;;;;;4954140;29;20465;-74
2022/01/04 15:27:57;;;;;;;3.40;0.60;;;3.70;96.30;;;;;;4937204;29;20171;-74
2022/01/04 15:30:23;;;;;;;1.77;0.60;;;3.70;96.30;;;;;;4954393;29;20231;-77
2022/01/04 15:32:49;;;;;;;0.80;0.50;;;3.60;96.30;;;;;;4954308;29;20406;-74
2022/01/04 15:35:14;;;;;;;0.80;0.50;;;3.60;96.30;;;;;;4936785;29;20837;-76
2022/01/04 15:37:40;;;;;;;0.80;0.50;;;3.60;96.30;;;;;;4937069;29;20179;-77
2022/01/04 15:40:10;;;;;;;0.83;0.60;;;3.60;96.30;;;;;;4954270;28;20761;-74
2022/01/04 15:42:36;;;;;;;1.33;0.60;;;3.60;96.30;;;;;;4954159;29;20565;-74
2022/01/04 15:45:02;;;;;;;0.80;0.57;;;3.60;96.30;;;;;;4953968;29;20462;-74
2022/01/04 15:47:27;;;;;;;0.90;0.60;;;3.50;96.30;;;;;;4954075;29;20899;-75
2022/01/04 15:49:53;;;;;;;0.90;0.60;;;3.50;96.30;;;;;;4951530;29;20187;-77
2022/01/04 15:52:19;;;;;;;0.90;0.50;;;3.50;96.30;;;;;;4953170;29;20191;-74
2022/01/04 15:54:45;;;;;;;1.20;0.70;;;3.60;96.30;;;;;;4935960;29;20229;-78
2022/01/04 15:57:10;;;;;;;1.00;0.60;;;3.60;96.30;;;;;;4936943;29;20969;-79
2022/01/04 15:59:36;;;;;;;2.70;0.70;;;3.60;96.30;;;;;;4954147;29;20178;-80
2022/01/04 16:02:02;;;;;;;0.90;0.60;;;3.60;96.30;;;;;;4936629;29;20214;-79
2022/01/04 16:04:28;;;;;;;1.73;0.60;;;3.60;96.30;;;;;;4954028;29;20213;-79
2022/01/04 16:06:54;;;;;;;0.80;0.53;;;3.60;96.30;;;;;;4968666;28;20917;-79
2022/01/04 16:09:21;;;;;;;1.00;0.60;;;3.60;96.30;;;;;;4940960;29;20584;-79
2022/01/04 16:11:47;;;;;;;1.07;0.60;;;3.60;96.30;;;;;;4952865;29;20206;-80
2022/01/04 16:14:12;;;;;;;0.90;0.67;;;3.60;96.30;;;;;;4953933;29;20430;-80
2022/01/04 16:16:58;;;;;;;0.80;0.60;;;3.60;96.30;;;;;;4963848;28;20182;-78
2022/01/04 16:22:08;;;;;;;1.10;0.70;;;3.60;96.30;;;;;;4947779;28;20453;-79
2022/01/04 16:24:33;;;;;;;1.10;0.90;;;3.60;96.30;;;;;;4944073;28;20837;-79
2022/01/04 16:26:59;;;;;;;1.00;0.70;;;3.70;96.30;;;;;;4948307;28;20179;-79
2022/01/04 16:29:26;;;;;;;1.10;1.00;;;3.70;96.30;;;;;;4944186;28;20239;-80
2022/01/04 16:31:54;;;;;;;1.23;1.00;;;3.70;96.30;;;;;;4937659;29;20449;-78
2022/01/04 16:34:21;;;;;;;1.10;0.90;;;3.70;96.30;;;;;;4948307;29;20470;-79
2022/01/04 16:36:49;;;;;;;1.13;1.00;;;3.60;96.30;;;;;;4950682;29;20422;-77
2022/01/04 16:39:17;;;;;;;1.80;1.00;;;3.60;96.30;;;;;;4945646;29;20445;-79
2022/01/04 16:41:45;;;;;;;1.20;0.90;;;3.60;96.30;;;;;;4948163;29;20820;-79
2022/01/04 16:44:11;;;;;;;1.50;1.03;;;3.60;96.30;;;;;;4948603;29;20474;-79
2022/01/04 16:46:40;;;;;;;1.27;0.80;;;3.60;96.30;;;;;;4934409;29;20427;-79
2022/01/04 16:49:07;;;;;;;1.60;0.80;;;3.60;96.30;;;;;;4935449;29;20431;-81
2022/01/04 16:51:33;;;;;;;1.07;0.80;;;3.60;96.30;;;;;;4944299;29;20509;-81
2022/01/04 16:53:59;;;;;;;1.53;1.00;;;3.60;96.30;;;;;;4930392;29;20431;-81
2022/01/04 16:56:25;;;;;;;6.30;1.20;;;3.60;96.30;;;;;;4949074;28;20429;-80
2022/01/04 16:58:51;;;;;;;1.33;1.23;;;3.60;96.30;;;;;;4939076;29;20225;-81
2022/01/04 17:01:17;;;;;;;2.20;1.50;;;3.60;96.30;;;;;;4938372;29;20199;-80
2022/01/04 17:03:43;;;;;;;1.80;1.57;;;3.60;96.30;;;;;;4953664;28;20195;-80
2022/01/04 17:06:08;;;;;;;1.40;1.30;;;3.50;96.30;;;;;;4941450;29;20421;-79
2022/01/04 17:08:37;;;;;;;1.57;1.33;;;3.50;96.30;;;;;;4956471;29;20258;-80
2022/01/04 17:11:12;;;;;;;4.83;1.53;;;3.50;96.30;;;;;;4939301;29;20294;-79
2022/01/04 17:16:23;;;;;;;1.60;1.40;;;3.40;96.30;;;;;;4969306;28;20465;-80
2022/01/04 17:18:51;;;;;;;1.93;1.60;;;3.40;96.30;;;;;;4961080;28;20425;-79
2022/01/04 17:21:19;;;;;;;2.93;1.83;;;3.30;96.30;;;;;;4958831;28;20449;-79
2022/01/04 17:23:45;;;;;;;2.80;2.10;;;3.30;96.30;;;;;;4953400;28;21001;-80
2022/01/04 17:26:13;;;;;;;2.67;2.33;;;3.30;96.30;;;;;;4964323;28;20426;-79
2022/01/04 17:28:39;;;;;;;2.10;1.90;;;3.20;96.30;;;;;;4956150;29;20655;-80
2022/01/04 17:31:04;;;;;;;2.37;2.17;;;3.30;96.30;;;;;;4941146;29;20537;-80
2022/01/04 17:33:30;;;;;;;2.60;2.33;;;3.30;96.30;;;;;;4939099;28;20206;-79
2022/01/04 17:35:56;;;;;;;3.20;2.43;;;3.30;96.30;;;;;;4951080;29;20218;-81
2022/01/04 17:38:22;;;;;;;2.37;2.17;;;3.20;96.30;;;;;;4949556;29;20186;-81
2022/01/04 17:40:48;;;;;;;2.80;2.60;;;3.20;96.30;;;;;;4943256;29;20455;-82
2022/01/04 17:43:14;;;;;;;2.47;2.27;;;3.30;96.30;;;;;;4938804;29;20518;-82
2022/01/04 17:45:40;;;;;;;2.90;2.53;;;3.30;96.30;;;;;;4947977;28;20242;-81
2022/01/04 17:48:06;;;;;;;2.40;2.20;;;3.30;96.30;;;;;;4951142;29;20179;-81
2022/01/04 17:50:33;;;;;;;1.97;1.87;;;3.20;96.30;;;;;;4934063;29;20175;-78
2022/01/04 17:52:58;;;;;;;2.20;2.00;;;3.20;96.30;;;;;;4948614;29;20481;-82
2022/01/04 17:55:25;;;;;;;3.10;2.10;;;3.20;96.30;;;;;;4942561;29;20446;-80
2022/01/04 17:57:51;;;;;;;2.90;2.07;;;3.10;96.30;;;;;;4932453;29;20183;-77
2022/01/04 18:00:16;;;;;;;3.53;2.13;;;3.10;96.30;;;;;;4933714;29;20777;-78
2022/01/04 18:02:43;;;;;;;2.40;2.20;;;3.10;96.30;;;;;;4857220;29;20242;-78
2022/01/04 18:05:09;;;;;;;2.37;2.17;;;3.20;96.30;;;;;;4899840;29;20209;-78
2022/01/04 18:07:34;;;;;;;3.00;1.73;;;3.20;96.30;;;;;;4898110;29;20981;-80
2022/01/04 18:10:00;;;;;;;1.70;1.60;;;3.20;96.30;;;;;;4897945;29;20213;-78
2022/01/04 18:12:25;;;;;;;1.90;1.50;;;3.20;96.30;;;;;;4893171;29;20212;-79
2022/01/04 18:14:51;;;;;;;2.77;1.90;;;3.20;96.30;;;;;;4897029;29;20193;-79
2022/01/04 18:17:17;;;;;;;1.60;1.50;;;3.20;96.30;;;;;;4895804;29;20197;-79
2022/01/04 18:19:43;;;;;;;1.93;1.63;;;3.20;96.30;;;;;;4896578;29;20189;-79
2022/01/04 18:22:08;;;;;;;1.97;1.67;;;3.20;96.30;;;;;;4896197;29;20464;-79